Time;durP1;ratioP1;P1;durP2;ratioP2;P2;SDS_P1;SDS_P2;PMS_P1;PMS_P2;Temp;Humidity;BMP_temperature;BMP_pressure;BME280_temperature;BME280_humidity;BME280_pressure;Samples;Min_cycle;Max_cycle;Signal;HPM_P1;HPM_P2
2022/05/06 00:02:00;;;;;;;14.67;10.83;;;;;;;;;;5049812;28;20206;-29
2022/05/06 00:04:27;;;;;;;15.37;10.70;;;;;;;;;;5049900;28;20432;-32
2022/05/06 00:06:55;;;;;;;14.37;10.40;;;;;;;;;;5044885;28;20229;-31
2022/05/06 00:09:23;;;;;;;15.83;10.93;;;;;;;;;;5057858;28;20527;-33
2022/05/06 00:11:52;;;;;;;13.90;10.57;;;;;;;;;;5039434;28;20214;-30
2022/05/06 00:14:19;;;;;;;14.93;10.67;;;;;;;;;;5044339;28;20312;-30
2022/05/06 00:16:46;;;;;;;16.80;11.53;;;;;;;;;;5061155;28;20221;-29
2022/05/06 00:19:13;;;;;;;16.00;11.57;;;;;;;;;;5060904;28;20382;-32
2022/05/06 00:21:40;;;;;;;15.70;11.00;;;;;;;;;;5046469;28;20452;-29
2022/05/06 00:24:08;;;;;;;13.57;10.70;;;;;;;;;;5069298;28;20213;-30
2022/05/06 00:26:35;;;;;;;13.50;10.63;;;;;;;;;;5051327;28;20234;-29
2022/05/06 00:29:03;;;;;;;12.73;10.47;;;;;;;;;;5034421;28;20206;-30
2022/05/06 00:31:30;;;;;;;15.50;12.30;;;;;;;;;;5054919;28;20204;-31
2022/05/06 00:33:57;;;;;;;13.77;10.70;;;;;;;;;;5049446;28;20213;-32
2022/05/06 00:36:24;;;;;;;13.93;10.23;;;;;;;;;;5046065;28;20727;-30
2022/05/06 00:38:52;;;;;;;13.43;10.07;;;;;;;;;;5048647;28;20236;-31
2022/05/06 00:41:19;;;;;;;13.27;10.63;;;;;;;;;;5041509;28;20230;-32
2022/05/06 00:43:47;;;;;;;13.07;9.13;;;;;;;;;;5038204;28;20201;-30
2022/05/06 00:46:16;;;;;;;16.50;10.23;;;;;;;;;;5052519;28;20279;-31
2022/05/06 00:48:44;;;;;;;13.80;10.93;;;;;;;;;;5053469;28;20206;-29
2022/05/06 00:51:11;;;;;;;14.47;9.73;;;;;;;;;;5049175;28;20206;-30
2022/05/06 00:53:39;;;;;;;14.27;10.53;;;;;;;;;;5043643;28;20280;-30
2022/05/06 00:56:09;;;;;;;14.00;9.97;;;;;;;;;;5047533;28;20591;-32
2022/05/06 00:58:36;;;;;;;13.80;9.60;;;;;;;;;;5048804;28;20214;-31
2022/05/06 01:01:04;;;;;;;15.77;10.83;;;;;;;;;;5049119;28;20229;-28
2022/05/06 01:03:33;;;;;;;13.70;10.20;;;;;;;;;;5046234;28;20213;-27
2022/05/06 01:06:02;;;;;;;14.50;10.37;;;;;;;;;;5056358;28;20225;-30
2022/05/06 01:08:29;;;;;;;14.50;11.03;;;;;;;;;;5071859;28;20220;-29
2022/05/06 01:10:57;;;;;;;14.03;10.10;;;;;;;;;;5044498;28;20237;-30
2022/05/06 01:13:24;;;;;;;16.07;10.83;;;;;;;;;;5041846;28;20299;-29
2022/05/06 01:15:55;;;;;;;13.63;10.13;;;;;;;;;;5059713;28;20222;-30
2022/05/06 01:18:22;;;;;;;11.07;9.20;;;;;;;;;;5052550;28;20210;-31
2022/05/06 01:20:52;;;;;;;12.53;9.80;;;;;;;;;;5045536;28;20234;-27
2022/05/06 01:23:22;;;;;;;14.27;10.80;;;;;;;;;;5045033;28;20210;-28
2022/05/06 01:25:49;;;;;;;18.10;9.63;;;;;;;;;;5055340;28;20225;-29
2022/05/06 01:28:17;;;;;;;13.67;10.30;;;;;;;;;;5033063;28;20206;-30
2022/05/06 01:30:45;;;;;;;14.43;10.27;;;;;;;;;;5068589;28;20208;-31
2022/05/06 01:33:14;;;;;;;13.63;10.60;;;;;;;;;;5052199;28;20263;-33
2022/05/06 01:35:43;;;;;;;13.20;10.60;;;;;;;;;;5049000;28;20312;-28
2022/05/06 01:38:10;;;;;;;14.10;10.47;;;;;;;;;;5057965;28;20201;-29
2022/05/06 01:40:40;;;;;;;17.20;10.63;;;;;;;;;;5049666;28;20236;-31
2022/05/06 01:43:09;;;;;;;13.30;10.40;;;;;;;;;;5043197;28;20388;-29
2022/05/06 01:45:37;;;;;;;13.10;10.10;;;;;;;;;;5057385;28;20222;-27
2022/05/06 01:48:05;;;;;;;13.90;9.87;;;;;;;;;;5072185;28;20201;-27
2022/05/06 01:50:32;;;;;;;14.93;9.53;;;;;;;;;;5044488;28;20383;-29
2022/05/06 01:53:00;;;;;;;10.87;8.63;;;;;;;;;;5047535;28;20311;-30
2022/05/06 01:55:27;;;;;;;12.13;9.80;;;;;;;;;;5050982;28;20234;-30
2022/05/06 01:57:56;;;;;;;15.07;9.80;;;;;;;;;;5046543;28;20210;-31
2022/05/06 02:00:25;;;;;;;15.57;10.50;;;;;;;;;;5051384;28;20293;-32
2022/05/06 02:02:54;;;;;;;13.17;8.87;;;;;;;;;;5054441;28;20251;-32
2022/05/06 02:05:21;;;;;;;11.60;8.50;;;;;;;;;;5042062;28;20230;-29
2022/05/06 02:07:49;;;;;;;13.47;9.63;;;;;;;;;;5053424;28;20204;-28
2022/05/06 02:10:16;;;;;;;13.03;9.13;;;;;;;;;;5071860;28;20248;-33
2022/05/06 02:12:44;;;;;;;11.93;8.90;;;;;;;;;;5039846;28;20235;-28
2022/05/06 02:15:13;;;;;;;12.80;9.70;;;;;;;;;;5044745;28;20251;-29
2022/05/06 02:17:41;;;;;;;13.50;9.37;;;;;;;;;;5069108;28;20207;-32
2022/05/06 02:20:09;;;;;;;11.93;9.10;;;;;;;;;;5052763;28;20202;-29
2022/05/06 02:22:37;;;;;;;9.67;8.33;;;;;;;;;;5048072;28;20244;-28
2022/05/06 02:25:05;;;;;;;11.73;8.83;;;;;;;;;;5064030;28;20202;-31
2022/05/06 02:27:32;;;;;;;13.70;10.03;;;;;;;;;;5049587;28;20214;-31
2022/05/06 02:35:30;;;;;;;13.40;9.87;;;;;;;;;;5033713;28;20237;-30
2022/05/06 02:37:57;;;;;;;12.17;8.70;;;;;;;;;;5061521;28;20302;-33
2022/05/06 02:40:24;;;;;;;11.93;9.63;;;;;;;;;;5055733;28;20206;-30
2022/05/06 02:42:51;;;;;;;14.83;9.57;;;;;;;;;;5044768;28;20210;-29
2022/05/06 02:45:19;;;;;;;12.83;9.20;;;;;;;;;;5057024;28;20225;-29
2022/05/06 02:47:47;;;;;;;11.87;9.20;;;;;;;;;;5070843;28;20563;-30
2022/05/06 02:50:14;;;;;;;13.67;9.00;;;;;;;;;;5048677;28;20201;-31
2022/05/06 02:52:41;;;;;;;10.47;8.33;;;;;;;;;;5061596;28;20202;-31
2022/05/06 02:55:08;;;;;;;14.50;9.37;;;;;;;;;;5050402;28;20680;-33
2022/05/06 02:57:35;;;;;;;13.07;9.37;;;;;;;;;;5033137;28;20212;-30
2022/05/06 03:00:03;;;;;;;14.90;10.27;;;;;;;;;;5054499;28;20213;-30
2022/05/06 03:02:30;;;;;;;14.17;11.10;;;;;;;;;;5053691;28;20225;-30
2022/05/06 03:04:59;;;;;;;12.10;9.77;;;;;;;;;;5041232;28;20210;-29
2022/05/06 03:07:26;;;;;;;14.00;10.10;;;;;;;;;;5048729;28;20595;-31
2022/05/06 03:09:53;;;;;;;12.97;9.67;;;;;;;;;;5061315;28;20210;-30
2022/05/06 03:12:22;;;;;;;14.20;10.70;;;;;;;;;;5044675;28;20207;-31
2022/05/06 03:14:50;;;;;;;14.07;9.53;;;;;;;;;;5050806;28;20301;-32
2022/05/06 03:17:17;;;;;;;15.00;10.80;;;;;;;;;;5070926;28;20224;-33
2022/05/06 03:19:44;;;;;;;14.53;10.53;;;;;;;;;;5053194;28;20221;-33
2022/05/06 03:22:13;;;;;;;14.13;9.93;;;;;;;;;;5064985;28;20225;-31
2022/05/06 03:24:40;;;;;;;13.50;9.47;;;;;;;;;;5052104;28;20289;-31
2022/05/06 03:27:59;;;;;;;15.43;10.50;;;;;;;;;;5042654;28;20560;-32
2022/05/06 03:29:57;;;;;;;12.00;9.10;;;;;;;;;;5052781;28;20209;-30
2022/05/06 03:32:24;;;;;;;13.30;10.17;;;;;;;;;;5054627;28;20198;-28
2022/05/06 03:34:52;;;;;;;13.33;11.07;;;;;;;;;;5040367;28;20205;-30
2022/05/06 03:37:20;;;;;;;15.37;11.40;;;;;;;;;;5050924;28;20233;-29
2022/05/06 03:39:47;;;;;;;16.23;11.03;;;;;;;;;;5050388;28;20212;-33
2022/05/06 03:42:15;;;;;;;17.60;11.93;;;;;;;;;;5036051;28;20698;-33
2022/05/06 03:44:42;;;;;;;18.37;11.80;;;;;;;;;;5056950;28;20203;-29
2022/05/06 03:47:09;;;;;;;15.57;11.00;;;;;;;;;;5064611;28;20228;-30
2022/05/06 03:49:36;;;;;;;16.43;10.27;;;;;;;;;;5073915;28;20214;-29
2022/05/06 03:52:03;;;;;;;20.70;12.93;;;;;;;;;;5055868;28;20209;-28
2022/05/06 03:54:33;;;;;;;17.60;11.27;;;;;;;;;;5054140;28;20249;-32
2022/05/06 03:57:00;;;;;;;18.50;12.30;;;;;;;;;;5033870;28;20234;-32
2022/05/06 03:59:28;;;;;;;12.87;10.17;;;;;;;;;;5044833;28;20289;-29
2022/05/06 04:01:55;;;;;;;15.07;10.77;;;;;;;;;;5050925;28;20220;-32
2022/05/06 04:04:26;;;;;;;15.63;11.23;;;;;;;;;;5050143;28;20206;-30
2022/05/06 04:06:53;;;;;;;16.13;11.10;;;;;;;;;;5039710;28;20325;-28
2022/05/06 04:09:21;;;;;;;15.03;11.33;;;;;;;;;;5053318;28;20216;-32
2022/05/06 04:11:49;;;;;;;16.13;11.13;;;;;;;;;;5053327;28;20217;-27
2022/05/06 04:14:17;;;;;;;14.90;10.63;;;;;;;;;;5050505;28;20295;-31
2022/05/06 04:16:44;;;;;;;17.07;11.30;;;;;;;;;;5059566;28;20230;-28
2022/05/06 04:19:11;;;;;;;15.90;11.10;;;;;;;;;;5073900;28;20215;-29
2022/05/06 04:24:23;;;;;;;18.13;12.13;;;;;;;;;;5059364;28;20296;-30
2022/05/06 04:26:51;;;;;;;16.63;11.30;;;;;;;;;;5048560;28;20234;-31
2022/05/06 04:29:18;;;;;;;17.00;11.23;;;;;;;;;;5054555;28;20209;-28
2022/05/06 04:31:47;;;;;;;18.90;11.53;;;;;;;;;;5052100;28;20224;-29
2022/05/06 04:34:14;;;;;;;13.63;10.43;;;;;;;;;;5052399;28;20212;-28
2022/05/06 04:36:42;;;;;;;16.93;10.97;;;;;;;;;;5075089;28;20221;-31
2022/05/06 04:39:09;;;;;;;14.13;10.83;;;;;;;;;;5055704;28;20302;-29
2022/05/06 04:41:36;;;;;;;15.67;11.63;;;;;;;;;;5040719;28;20559;-30
2022/05/06 04:44:04;;;;;;;15.00;10.90;;;;;;;;;;5053547;28;20206;-29
2022/05/06 04:46:31;;;;;;;12.63;10.27;;;;;;;;;;5062876;28;20332;-30
2022/05/06 04:48:59;;;;;;;15.17;10.73;;;;;;;;;;5075543;28;20217;-29
2022/05/06 04:51:26;;;;;;;12.90;9.50;;;;;;;;;;5055184;28;20205;-31
2022/05/06 04:53:55;;;;;;;17.93;11.53;;;;;;;;;;5053331;28;20222;-32
2022/05/06 04:56:31;;;;;;;14.70;10.80;;;;;;;;;;5049950;28;20280;-28
2022/05/06 04:58:58;;;;;;;14.83;11.10;;;;;;;;;;5043078;28;20211;-31
2022/05/06 05:01:26;;;;;;;13.70;10.23;;;;;;;;;;5066929;28;20194;-32
2022/05/06 05:03:59;;;;;;;16.27;10.50;;;;;;;;;;5073729;28;20206;-30
2022/05/06 05:06:26;;;;;;;14.53;10.67;;;;;;;;;;5059916;28;20228;-26
2022/05/06 05:08:53;;;;;;;17.17;11.23;;;;;;;;;;5065310;28;20216;-33
2022/05/06 05:11:20;;;;;;;19.07;11.07;;;;;;;;;;5060298;28;20631;-28
2022/05/06 05:13:47;;;;;;;13.37;10.47;;;;;;;;;;5039836;28;20204;-29
2022/05/06 05:16:15;;;;;;;13.47;10.37;;;;;;;;;;5059848;28;20249;-32
2022/05/06 05:18:43;;;;;;;16.43;10.37;;;;;;;;;;5064388;28;20202;-32
2022/05/06 05:21:10;;;;;;;14.23;10.53;;;;;;;;;;5061894;28;20208;-30
2022/05/06 05:23:38;;;;;;;14.40;10.27;;;;;;;;;;5057213;28;20229;-29
2022/05/06 05:26:05;;;;;;;14.77;10.93;;;;;;;;;;5049262;28;20222;-30
2022/05/06 05:28:32;;;;;;;16.27;11.60;;;;;;;;;;5036901;28;20208;-27
2022/05/06 05:30:59;;;;;;;14.13;10.47;;;;;;;;;;5062377;28;20252;-30
2022/05/06 05:33:26;;;;;;;14.77;11.97;;;;;;;;;;5055116;28;20198;-29
2022/05/06 05:35:54;;;;;;;16.87;11.27;;;;;;;;;;5049161;28;20239;-29
2022/05/06 05:38:22;;;;;;;15.67;10.80;;;;;;;;;;5061140;28;20593;-29
2022/05/06 05:40:49;;;;;;;18.07;10.83;;;;;;;;;;5052648;28;20211;-30
2022/05/06 05:48:42;;;;;;;13.67;10.20;;;;;;;;;;5054939;28;20185;-28
2022/05/06 05:51:10;;;;;;;15.17;9.97;;;;;;;;;;5049453;28;20612;-30
2022/05/06 05:53:38;;;;;;;14.97;10.40;;;;;;;;;;5060529;28;20289;-31
2022/05/06 05:56:05;;;;;;;14.50;11.07;;;;;;;;;;5065306;28;20227;-30
2022/05/06 05:58:34;;;;;;;15.57;10.90;;;;;;;;;;5041152;28;20217;-27
2022/05/06 06:01:01;;;;;;;20.07;10.83;;;;;;;;;;5070537;28;20611;-27
2022/05/06 06:03:28;;;;;;;20.53;10.67;;;;;;;;;;5054511;28;20226;-29
2022/05/06 06:05:58;;;;;;;13.23;10.20;;;;;;;;;;5049091;28;20699;-32
2022/05/06 06:08:26;;;;;;;15.63;10.07;;;;;;;;;;5064215;28;20212;-32
2022/05/06 06:10:54;;;;;;;14.17;8.60;;;;;;;;;;5052132;28;20227;-28
2022/05/06 06:13:22;;;;;;;12.97;9.50;;;;;;;;;;5045352;28;20238;-26
2022/05/06 06:15:49;;;;;;;12.80;9.80;;;;;;;;;;5060796;28;20244;-25
2022/05/06 06:18:18;;;;;;;12.83;10.53;;;;;;;;;;5051853;28;20256;-31
2022/05/06 06:20:45;;;;;;;13.37;9.33;;;;;;;;;;5038187;28;20218;-32
2022/05/06 06:23:12;;;;;;;12.87;9.03;;;;;;;;;;5057898;28;20237;-30
2022/05/06 06:25:41;;;;;;;13.50;9.17;;;;;;;;;;5068295;28;20259;-28
2022/05/06 06:28:08;;;;;;;12.70;9.13;;;;;;;;;;5036669;28;20295;-28
2022/05/06 06:30:35;;;;;;;13.47;9.33;;;;;;;;;;5066859;28;20201;-30
2022/05/06 06:33:03;;;;;;;17.20;9.63;;;;;;;;;;5053883;28;20209;-29
2022/05/06 06:35:30;;;;;;;13.13;8.93;;;;;;;;;;5046204;28;20594;-29
2022/05/06 06:37:57;;;;;;;11.17;8.23;;;;;;;;;;5048737;28;20217;-30
2022/05/06 06:40:25;;;;;;;12.57;8.57;;;;;;;;;;5058119;28;20642;-31
2022/05/06 06:42:53;;;;;;;10.13;8.33;;;;;;;;;;5044810;28;20229;-29
2022/05/06 06:45:20;;;;;;;11.97;9.10;;;;;;;;;;5056214;28;20228;-30
2022/05/06 06:47:47;;;;;;;12.80;8.80;;;;;;;;;;5053380;28;20210;-30
2022/05/06 06:50:14;;;;;;;13.20;9.53;;;;;;;;;;5050094;28;20213;-27
2022/05/06 06:52:42;;;;;;;10.50;9.37;;;;;;;;;;5054967;28;20565;-26
2022/05/06 06:55:10;;;;;;;9.33;7.57;;;;;;;;;;5064412;28;20547;-31
2022/05/06 06:57:37;;;;;;;11.03;8.83;;;;;;;;;;5046779;28;20216;-27
2022/05/06 07:00:08;;;;;;;10.97;7.83;;;;;;;;;;5058214;28;20212;-32
2022/05/06 07:02:35;;;;;;;9.10;8.07;;;;;;;;;;5054890;28;20235;-28
2022/05/06 07:05:02;;;;;;;10.23;8.03;;;;;;;;;;5049235;28;20210;-31
2022/05/06 07:12:59;;;;;;;8.73;7.60;;;;;;;;;;5042795;28;20287;-28
2022/05/06 07:15:29;;;;;;;9.43;6.47;;;;;;;;;;5063835;28;20221;-29
2022/05/06 07:17:57;;;;;;;8.40;7.37;;;;;;;;;;5058895;28;20209;-30
2022/05/06 07:20:24;;;;;;;9.73;7.20;;;;;;;;;;5050696;28;20292;-27
2022/05/06 07:22:51;;;;;;;9.80;7.50;;;;;;;;;;5058407;28;20239;-31
2022/05/06 07:25:18;;;;;;;8.67;7.30;;;;;;;;;;5057372;28;20217;-33
2022/05/06 07:27:47;;;;;;;8.50;6.60;;;;;;;;;;5040625;28;20212;-30
2022/05/06 07:30:14;;;;;;;9.30;7.20;;;;;;;;;;5055557;28;20326;-29
2022/05/06 07:32:42;;;;;;;9.80;7.40;;;;;;;;;;5070020;28;20235;-26
2022/05/06 07:35:10;;;;;;;8.77;6.77;;;;;;;;;;5068415;28;20205;-29
2022/05/06 07:37:38;;;;;;;8.77;6.20;;;;;;;;;;5050093;28;20570;-30
2022/05/06 07:40:06;;;;;;;8.73;6.83;;;;;;;;;;5061205;28;20206;-32
2022/05/06 07:42:34;;;;;;;12.70;6.97;;;;;;;;;;5052339;28;20230;-31
2022/05/06 07:45:01;;;;;;;10.00;7.00;;;;;;;;;;5059988;28;20210;-32
2022/05/06 07:47:28;;;;;;;12.27;7.00;;;;;;;;;;5043796;28;20653;-27
2022/05/06 07:49:57;;;;;;;8.73;5.90;;;;;;;;;;5031238;28;20612;-30
2022/05/06 07:52:24;;;;;;;9.30;6.80;;;;;;;;;;5050745;28;20203;-30
2022/05/06 07:54:51;;;;;;;7.67;6.60;;;;;;;;;;5073992;28;20209;-31
2022/05/06 07:57:18;;;;;;;10.77;7.00;;;;;;;;;;5048906;28;20238;-30
2022/05/06 07:59:45;;;;;;;8.17;7.17;;;;;;;;;;5050829;28;20212;-28
2022/05/06 08:04:59;;;;;;;7.97;6.67;;;;;;;;;;5054283;28;20208;-29
2022/05/06 08:07:26;;;;;;;7.80;6.60;;;;;;;;;;5062178;28;20540;-31
2022/05/06 08:09:54;;;;;;;9.53;7.10;;;;;;;;;;5066366;28;20207;-32
2022/05/06 08:12:21;;;;;;;7.10;6.37;;;;;;;;;;5049427;28;20206;-30
2022/05/06 08:14:48;;;;;;;7.77;6.37;;;;;;;;;;5050583;28;20205;-29
2022/05/06 08:17:16;;;;;;;7.90;6.90;;;;;;;;;;5073174;28;20229;-30
2022/05/06 08:19:43;;;;;;;9.33;6.53;;;;;;;;;;5052597;28;20216;-27
2022/05/06 08:22:11;;;;;;;6.90;6.20;;;;;;;;;;5049842;28;20292;-27
2022/05/06 08:24:38;;;;;;;10.10;6.30;;;;;;;;;;5050681;28;20290;-27
2022/05/06 08:27:05;;;;;;;8.77;6.50;;;;;;;;;;5046403;28;20538;-28
2022/05/06 08:29:33;;;;;;;7.93;6.53;;;;;;;;;;5053324;28;20211;-28
2022/05/06 08:32:00;;;;;;;10.47;5.90;;;;;;;;;;5070473;28;20207;-29
2022/05/06 08:34:27;;;;;;;10.07;7.00;;;;;;;;;;5041902;28;20789;-30
2022/05/06 08:36:54;;;;;;;8.60;6.07;;;;;;;;;;5048700;28;20225;-30
2022/05/06 08:39:22;;;;;;;9.00;6.30;;;;;;;;;;5054603;28;20202;-29
2022/05/06 08:41:51;;;;;;;7.83;5.80;;;;;;;;;;5058075;28;20203;-26
2022/05/06 08:52:34;;;;;;;13.63;6.97;;;;;;;;;;5048963;28;20205;-29
2022/05/06 08:55:03;;;;;;;8.00;5.30;;;;;;;;;;5064607;28;20205;-27
2022/05/06 08:57:31;;;;;;;8.70;6.23;;;;;;;;;;5051525;28;20301;-28
2022/05/06 08:59:58;;;;;;;7.10;6.07;;;;;;;;;;5061687;28;20216;-29
2022/05/06 09:02:26;;;;;;;7.30;5.70;;;;;;;;;;5060306;28;20210;-30
2022/05/06 09:04:53;;;;;;;9.70;5.67;;;;;;;;;;5051120;28;20228;-30
2022/05/06 09:07:21;;;;;;;6.03;5.40;;;;;;;;;;5046726;28;20326;-30
2022/05/06 09:10:07;;;;;;;7.67;6.20;;;;;;;;;;5052759;28;20208;-31
2022/05/06 09:12:45;;;;;;;6.23;5.33;;;;;;;;;;5047523;28;20212;-29
2022/05/06 09:17:58;;;;;;;6.93;5.60;;;;;;;;;;5049613;28;20643;-28
2022/05/06 09:20:25;;;;;;;9.17;5.40;;;;;;;;;;5041877;28;20211;-30
2022/05/06 09:22:53;;;;;;;6.87;5.83;;;;;;;;;;5055790;28;20267;-30
2022/05/06 09:25:36;;;;;;;9.03;5.27;;;;;;;;;;5054945;28;20230;-30
2022/05/06 09:28:06;;;;;;;8.93;5.17;;;;;;;;;;5039116;28;20210;-31
2022/05/06 09:30:34;;;;;;;6.53;4.77;;;;;;;;;;5045434;28;20597;-28
2022/05/06 09:33:03;;;;;;;7.87;4.90;;;;;;;;;;5039821;28;20877;-32
2022/05/06 09:35:32;;;;;;;5.70;5.13;;;;;;;;;;5044191;28;20222;-30
2022/05/06 09:38:03;;;;;;;5.33;4.57;;;;;;;;;;5055295;28;20221;-28
2022/05/06 09:40:30;;;;;;;6.30;5.30;;;;;;;;;;5043877;28;20286;-31
2022/05/06 09:42:58;;;;;;;5.73;4.70;;;;;;;;;;5053280;28;20331;-31
2022/05/06 09:45:31;;;;;;;7.90;4.90;;;;;;;;;;5065236;28;20247;-31
2022/05/06 09:47:59;;;;;;;6.10;4.63;;;;;;;;;;5036764;28;20205;-29
2022/05/06 09:50:33;;;;;;;6.17;5.10;;;;;;;;;;5032536;28;20630;-32
2022/05/06 09:53:00;;;;;;;6.20;4.93;;;;;;;;;;5049937;28;20201;-32
2022/05/06 09:55:28;;;;;;;6.37;4.70;;;;;;;;;;5052598;28;20218;-29
2022/05/06 09:57:55;;;;;;;9.33;4.60;;;;;;;;;;5043686;28;20253;-27
2022/05/06 10:00:23;;;;;;;5.60;4.47;;;;;;;;;;5053843;28;20224;-27
2022/05/06 10:02:51;;;;;;;8.23;4.70;;;;;;;;;;5074787;28;20197;-30
2022/05/06 10:05:18;;;;;;;4.87;4.30;;;;;;;;;;5054542;28;20487;-31
2022/05/06 10:07:46;;;;;;;7.30;4.23;;;;;;;;;;5046914;28;20206;-30
2022/05/06 10:10:17;;;;;;;8.53;3.47;;;;;;;;;;5048559;28;20221;-29
2022/05/06 10:12:47;;;;;;;9.17;4.13;;;;;;;;;;5049116;28;20210;-30
2022/05/06 10:15:14;;;;;;;7.27;4.50;;;;;;;;;;5051826;28;20289;-30
2022/05/06 10:17:52;;;;;;;6.07;4.40;;;;;;;;;;5047805;28;20206;-29
2022/05/06 10:20:47;;;;;;;6.53;4.80;;;;;;;;;;5034417;28;20566;-31
2022/05/06 10:23:18;;;;;;;7.67;4.50;;;;;;;;;;5056412;28;20218;-27
2022/05/06 10:26:03;;;;;;;6.07;4.47;;;;;;;;;;5051471;28;20223;-28
2022/05/06 10:34:31;;;;;;;6.33;3.90;;;;;;;;;;5044674;28;20193;-31
2022/05/06 10:37:00;;;;;;;7.23;4.60;;;;;;;;;;5043783;28;20236;-29
2022/05/06 10:39:29;;;;;;;5.73;4.20;;;;;;;;;;5052398;28;20228;-29
2022/05/06 10:42:03;;;;;;;5.40;4.30;;;;;;;;;;5047555;28;20220;-27
2022/05/06 10:44:34;;;;;;;6.33;4.13;;;;;;;;;;5057886;28;20244;-29
2022/05/06 10:47:01;;;;;;;6.00;4.03;;;;;;;;;;5040447;28;20214;-28
2022/05/06 10:49:51;;;;;;;13.43;4.60;;;;;;;;;;5040502;28;20212;-31
2022/05/06 10:52:36;;;;;;;5.30;3.90;;;;;;;;;;5043119;28;20210;-31
2022/05/06 10:55:05;;;;;;;6.80;4.40;;;;;;;;;;5047369;28;20198;-30
2022/05/06 10:57:33;;;;;;;3.93;3.63;;;;;;;;;;5046879;28;20210;-31
2022/05/06 11:00:01;;;;;;;5.37;4.23;;;;;;;;;;5052006;28;20296;-30
2022/05/06 11:02:29;;;;;;;6.07;4.67;;;;;;;;;;5039668;28;20213;-30
2022/05/06 11:04:57;;;;;;;4.77;4.23;;;;;;;;;;5040328;28;20304;-29
2022/05/06 11:07:24;;;;;;;6.87;4.07;;;;;;;;;;5041510;28;20214;-30
2022/05/06 11:09:52;;;;;;;4.80;4.00;;;;;;;;;;5046790;28;20210;-32
2022/05/06 11:12:30;;;;;;;7.17;3.77;;;;;;;;;;5039910;28;20205;-30
2022/05/06 11:14:58;;;;;;;3.83;3.53;;;;;;;;;;5038623;28;20210;-28
2022/05/06 11:17:25;;;;;;;8.27;4.07;;;;;;;;;;5034541;28;20204;-29
2022/05/06 11:19:52;;;;;;;6.17;3.70;;;;;;;;;;5036126;28;20205;-30
2022/05/06 11:22:20;;;;;;;5.33;3.90;;;;;;;;;;5044530;28;20210;-32
2022/05/06 11:24:47;;;;;;;6.37;4.07;;;;;;;;;;5042836;28;20233;-28
2022/05/06 11:27:18;;;;;;;6.37;4.07;;;;;;;;;;5045506;28;20258;-29
2022/05/06 11:29:51;;;;;;;4.73;3.90;;;;;;;;;;5044441;28;20199;-27
2022/05/06 11:32:18;;;;;;;6.50;4.00;;;;;;;;;;5047192;28;20205;-26
2022/05/06 11:34:48;;;;;;;3.97;3.57;;;;;;;;;;5042554;28;20206;-30
2022/05/06 11:37:22;;;;;;;5.37;4.07;;;;;;;;;;5041434;28;20227;-29
2022/05/06 11:39:50;;;;;;;8.93;4.23;;;;;;;;;;5038020;28;20205;-30
2022/05/06 11:42:21;;;;;;;5.93;4.13;;;;;;;;;;5041951;28;20216;-28
2022/05/06 11:47:42;;;;;;;4.13;3.70;;;;;;;;;;5068426;28;20190;-31
2022/05/06 11:50:10;;;;;;;7.10;3.67;;;;;;;;;;5041790;28;20201;-28
2022/05/06 11:52:38;;;;;;;3.90;3.50;;;;;;;;;;5053385;28;20543;-31
2022/05/06 11:55:06;;;;;;;6.10;3.50;;;;;;;;;;5045605;28;20209;-31
2022/05/06 11:57:33;;;;;;;4.13;3.67;;;;;;;;;;5040246;28;20213;-31
2022/05/06 12:00:03;;;;;;;7.50;3.37;;;;;;;;;;5035845;28;20213;-28
2022/05/06 12:02:30;;;;;;;5.87;3.63;;;;;;;;;;5049465;28;20667;-30
2022/05/06 12:04:57;;;;;;;5.70;3.63;;;;;;;;;;5035825;28;20222;-31
2022/05/06 12:07:39;;;;;;;6.13;3.77;;;;;;;;;;5036191;28;20206;-31
2022/05/06 12:10:06;;;;;;;7.73;4.80;;;;;;;;;;5055229;28;20237;-29
2022/05/06 12:12:33;;;;;;;5.37;4.17;;;;;;;;;;5041112;28;20213;-27
2022/05/06 12:15:11;;;;;;;6.33;3.20;;;;;;;;;;5040545;28;20214;-30
2022/05/06 12:17:38;;;;;;;4.07;3.13;;;;;;;;;;5036571;28;20281;-29
2022/05/06 12:20:06;;;;;;;3.73;3.43;;;;;;;;;;5034380;28;20206;-28
2022/05/06 12:22:33;;;;;;;5.10;3.27;;;;;;;;;;5042651;28;21308;-31
2022/05/06 12:25:00;;;;;;;3.77;3.03;;;;;;;;;;5039239;28;20218;-28
2022/05/06 12:27:27;;;;;;;4.60;3.33;;;;;;;;;;5036030;28;20214;-29
2022/05/06 12:29:55;;;;;;;4.60;3.43;;;;;;;;;;5043152;28;20212;-30
2022/05/06 12:32:23;;;;;;;3.67;3.30;;;;;;;;;;5032121;28;20214;-30
2022/05/06 12:35:02;;;;;;;3.67;3.37;;;;;;;;;;5043032;28;20405;-30
2022/05/06 12:37:30;;;;;;;3.67;3.30;;;;;;;;;;5042100;28;20206;-31
2022/05/06 12:40:00;;;;;;;5.13;3.40;;;;;;;;;;5054718;28;20204;-30
2022/05/06 12:42:27;;;;;;;4.87;3.20;;;;;;;;;;5043658;28;20198;-30
2022/05/06 12:44:54;;;;;;;6.13;3.90;;;;;;;;;;5049904;28;20232;-30
2022/05/06 12:50:10;;;;;;;4.83;3.47;;;;;;;;;;5038831;28;20259;-30
2022/05/06 12:52:37;;;;;;;3.60;3.30;;;;;;;;;;5042967;28;20229;-28
2022/05/06 12:55:05;;;;;;;3.00;2.80;;;;;;;;;;5043045;28;20202;-29
2022/05/06 12:57:33;;;;;;;4.23;3.27;;;;;;;;;;5047373;28;20320;-30
2022/05/06 13:00:00;;;;;;;3.73;3.27;;;;;;;;;;5055319;28;20202;-29
2022/05/06 13:02:27;;;;;;;3.77;3.10;;;;;;;;;;5043901;28;20199;-27
2022/05/06 13:04:56;;;;;;;6.33;3.20;;;;;;;;;;5046550;28;20225;-28
2022/05/06 13:07:25;;;;;;;7.03;3.20;;;;;;;;;;5047833;28;20301;-27
2022/05/06 13:09:52;;;;;;;5.67;3.57;;;;;;;;;;5066744;28;20213;-29
2022/05/06 13:12:19;;;;;;;3.07;2.77;;;;;;;;;;5052664;28;20206;-29
2022/05/06 13:14:46;;;;;;;3.93;3.27;;;;;;;;;;5049485;28;20205;-30
2022/05/06 13:17:13;;;;;;;3.87;2.70;;;;;;;;;;5045053;28;20214;-30
2022/05/06 13:19:40;;;;;;;4.60;3.20;;;;;;;;;;5039083;28;20417;-30
2022/05/06 13:22:09;;;;;;;4.73;3.70;;;;;;;;;;5056844;28;20204;-29
2022/05/06 13:24:38;;;;;;;4.67;3.60;;;;;;;;;;5045433;28;20260;-31
2022/05/06 13:27:14;;;;;;;4.27;3.73;;;;;;;;;;5035935;28;20260;-29
2022/05/06 13:29:42;;;;;;;5.97;4.00;;;;;;;;;;5054460;28;20211;-28
2022/05/06 13:32:11;;;;;;;6.23;3.80;;;;;;;;;;5066485;28;20254;-27
2022/05/06 13:34:38;;;;;;;6.20;4.00;;;;;;;;;;5054375;28;20664;-28
2022/05/06 13:37:06;;;;;;;3.20;2.80;;;;;;;;;;5046124;28;20233;-29
2022/05/06 13:39:33;;;;;;;4.37;3.87;;;;;;;;;;5053723;28;20198;-30
2022/05/06 13:42:01;;;;;;;6.40;3.90;;;;;;;;;;5051485;28;20210;-28
2022/05/06 13:44:28;;;;;;;5.23;3.47;;;;;;;;;;5041082;28;20552;-26
2022/05/06 13:46:55;;;;;;;5.50;4.13;;;;;;;;;;5038525;28;20226;-29
2022/05/06 13:49:22;;;;;;;4.83;3.37;;;;;;;;;;5034674;28;20206;-30
2022/05/06 13:51:49;;;;;;;4.83;3.83;;;;;;;;;;5046054;28;20198;-28
2022/05/06 13:54:17;;;;;;;7.67;3.33;;;;;;;;;;5055245;28;20209;-30
2022/05/06 13:59:30;;;;;;;5.20;3.50;;;;;;;;;;5048451;28;20241;-28
2022/05/06 14:01:57;;;;;;;5.73;3.63;;;;;;;;;;5064781;28;20201;-27
2022/05/06 14:04:24;;;;;;;5.30;3.70;;;;;;;;;;5074827;28;20233;-27
2022/05/06 14:06:52;;;;;;;6.20;3.97;;;;;;;;;;5049529;28;20225;-27
2022/05/06 14:09:19;;;;;;;8.00;3.90;;;;;;;;;;5055971;28;20198;-29
2022/05/06 14:11:46;;;;;;;7.80;3.80;;;;;;;;;;5049319;28;20220;-31
2022/05/06 14:14:13;;;;;;;4.33;3.90;;;;;;;;;;5051386;28;20412;-29
2022/05/06 14:16:41;;;;;;;3.67;3.30;;;;;;;;;;5062186;28;20237;-30
2022/05/06 14:19:08;;;;;;;4.87;3.30;;;;;;;;;;5051525;28;20207;-26
2022/05/06 14:21:36;;;;;;;4.47;3.43;;;;;;;;;;5043723;28;20586;-29
2022/05/06 14:24:03;;;;;;;5.40;3.30;;;;;;;;;;5056089;28;20203;-30
2022/05/06 14:26:32;;;;;;;7.30;3.13;;;;;;;;;;5048064;28;20222;-28
2022/05/06 14:28:59;;;;;;;5.50;3.67;;;;;;;;;;5054418;28;20206;-29
2022/05/06 14:31:26;;;;;;;6.40;3.30;;;;;;;;;;5053307;28;20198;-28
2022/05/06 14:33:55;;;;;;;6.43;4.03;;;;;;;;;;5041766;28;20201;-30
2022/05/06 14:36:22;;;;;;;4.80;3.40;;;;;;;;;;5039901;28;20225;-28
2022/05/06 14:38:49;;;;;;;4.70;3.10;;;;;;;;;;5059464;28;20205;-31
2022/05/06 14:41:16;;;;;;;3.43;3.10;;;;;;;;;;5048230;28;20678;-28
2022/05/06 14:43:44;;;;;;;4.50;3.33;;;;;;;;;;5047769;28;20206;-28
2022/05/06 14:46:11;;;;;;;3.73;3.43;;;;;;;;;;5067536;28;20232;-30
2022/05/06 14:48:38;;;;;;;5.13;3.60;;;;;;;;;;5035218;28;20203;-28
2022/05/06 14:51:07;;;;;;;4.70;3.13;;;;;;;;;;5040876;28;20201;-30
2022/05/06 14:53:34;;;;;;;5.27;3.30;;;;;;;;;;5046994;28;20213;-29
2022/05/06 14:56:01;;;;;;;4.33;3.43;;;;;;;;;;5049850;28;20230;-29
2022/05/06 14:58:28;;;;;;;3.37;2.80;;;;;;;;;;5043743;28;20203;-31
2022/05/06 15:00:55;;;;;;;5.70;3.70;;;;;;;;;;5063403;28;20204;-28
2022/05/06 15:03:23;;;;;;;5.17;3.27;;;;;;;;;;5045243;28;20209;-29
2022/05/06 15:05:51;;;;;;;4.50;3.30;;;;;;;;;;5036190;28;20623;-30
2022/05/06 15:08:19;;;;;;;5.60;3.27;;;;;;;;;;5061232;28;20210;-27
2022/05/06 15:10:47;;;;;;;3.60;3.30;;;;;;;;;;5055181;28;20238;-32
2022/05/06 15:13:14;;;;;;;4.07;3.10;;;;;;;;;;5040137;28;20257;-28
2022/05/06 15:15:41;;;;;;;4.60;3.00;;;;;;;;;;5042377;28;20703;-29
2022/05/06 15:20:49;;;;;;;4.07;3.33;;;;;;;;;;5021227;28;20190;-32
2022/05/06 15:23:17;;;;;;;6.20;3.33;;;;;;;;;;5047284;28;20205;-30
2022/05/06 15:25:46;;;;;;;4.70;3.30;;;;;;;;;;5058867;28;20230;-28
2022/05/06 15:28:13;;;;;;;3.60;3.07;;;;;;;;;;5050949;28;20208;-27
2022/05/06 15:30:41;;;;;;;4.13;3.40;;;;;;;;;;5048609;28;20206;-30